createdAt,value
2018-06-02T00:02:21.112Z,40.60
2018-06-02T00:04:49.520Z,40.60
2018-06-02T00:10:15.680Z,40.60
2018-06-02T00:12:46.107Z,40.50
2018-06-02T00:20:36.411Z,40.90
2018-06-02T00:23:04.808Z,41.00
2018-06-02T00:25:44.221Z,40.90
2018-06-02T00:28:13.680Z,41.10
2018-06-02T00:33:23.471Z,41.30
2018-06-02T00:40:58.554Z,41.50
2018-06-02T00:43:30.945Z,41.60
2018-06-02T00:48:36.780Z,41.60
2018-06-02T00:51:09.638Z,41.60
2018-06-02T00:53:37.991Z,41.60
2018-06-02T00:56:06.193Z,41.70
2018-06-02T00:58:33.929Z,41.80
2018-06-02T01:01:01.478Z,41.80
2018-06-02T01:03:29.229Z,41.80
2018-06-02T01:05:59.932Z,41.80
2018-06-02T01:08:28.713Z,41.80
2018-06-02T01:10:56.484Z,41.90
2018-06-02T01:13:23.962Z,42.10
2018-06-02T01:15:55.927Z,42.20
2018-06-02T01:18:23.427Z,42.20
2018-06-02T01:20:51.909Z,42.60
2018-06-02T01:23:19.434Z,43.20
2018-06-02T01:25:47.172Z,44.30
2018-06-02T01:28:15.493Z,45.70
2018-06-02T01:30:43.472Z,45.60
2018-06-02T01:33:11.687Z,45.10
2018-06-02T01:35:40.671Z,43.70
2018-06-02T01:38:08.335Z,43.60
2018-06-02T01:40:35.856Z,43.70
2018-06-02T01:43:03.337Z,43.80
2018-06-02T01:45:30.827Z,43.70
2018-06-02T01:47:58.406Z,43.70
2018-06-02T01:50:25.889Z,43.70
2018-06-02T01:52:54.142Z,43.60
2018-06-02T01:55:21.715Z,43.50
2018-06-02T01:57:49.215Z,43.60
2018-06-02T02:00:16.731Z,44.30
2018-06-02T02:02:44.647Z,43.80
2018-06-02T02:05:12.916Z,43.60
2018-06-02T02:07:40.690Z,43.50
2018-06-02T02:10:09.394Z,42.90
2018-06-02T02:12:37.776Z,42.80
2018-06-02T02:15:05.436Z,42.80
2018-06-02T02:17:33.306Z,42.80
2018-06-02T02:20:01.056Z,42.80
2018-06-02T02:22:28.617Z,43.00
2018-06-02T02:24:57.790Z,43.20
2018-06-02T02:27:25.311Z,43.10
2018-06-02T02:29:52.892Z,43.20
2018-06-02T02:32:20.392Z,43.30
2018-06-02T02:34:48.742Z,43.30
2018-06-02T02:37:16.572Z,43.10
2018-06-02T02:39:44.302Z,43.20
2018-06-02T02:42:11.787Z,43.40
2018-06-02T02:44:39.285Z,43.20
2018-06-02T02:47:07.582Z,43.30
2018-06-02T02:49:35.940Z,43.30
2018-06-02T02:52:04.205Z,43.20
2018-06-02T02:54:31.725Z,43.40
2018-06-02T02:56:59.203Z,43.50
2018-06-02T02:59:26.767Z,43.60
2018-06-02T03:01:54.320Z,43.50
2018-06-02T03:04:21.851Z,43.60
2018-06-02T03:06:49.376Z,43.70
2018-06-02T03:09:16.855Z,43.80
2018-06-02T03:11:44.360Z,44.10
2018-06-02T03:14:12.074Z,44.00
2018-06-02T03:16:39.736Z,44.00
2018-06-02T03:19:07.454Z,44.10
2018-06-02T03:21:34.958Z,44.10
2018-06-02T03:24:02.447Z,44.10
2018-06-02T03:26:29.947Z,44.20
2018-06-02T03:28:57.439Z,44.30
2018-06-02T03:31:25.367Z,44.40
2018-06-02T03:33:52.891Z,44.40
2018-06-02T03:36:20.372Z,44.50
2018-06-02T03:38:48.176Z,44.70
2018-06-02T03:41:17.336Z,44.70
2018-06-02T03:43:44.840Z,44.70
2018-06-02T03:46:12.411Z,44.70
2018-06-02T03:48:40.072Z,44.60
2018-06-02T03:51:07.573Z,44.80
2018-06-02T03:53:35.064Z,44.70
2018-06-02T03:56:02.543Z,44.60
2018-06-02T03:58:30.283Z,44.30
2018-06-02T04:00:58.793Z,44.00
2018-06-02T04:03:26.315Z,43.90
2018-06-02T04:05:54.614Z,43.70
2018-06-02T04:08:22.086Z,43.60
2018-06-02T04:10:49.555Z,43.40
2018-06-02T04:13:17.036Z,43.30
2018-06-02T04:15:44.554Z,43.40
2018-06-02T04:18:12.815Z,43.50
2018-06-02T04:20:41.281Z,43.40
2018-06-02T04:23:09.533Z,43.50
2018-06-02T04:25:37.002Z,43.50
2018-06-02T04:28:05.257Z,43.40
2018-06-02T04:30:32.906Z,43.40
2018-06-02T04:33:00.649Z,43.40
2018-06-02T04:35:29.045Z,43.40
2018-06-02T04:37:56.559Z,43.40
2018-06-02T04:40:25.323Z,43.50
2018-06-02T04:42:52.833Z,43.50
2018-06-02T04:45:20.308Z,43.50
2018-06-02T04:47:47.797Z,43.20
2018-06-02T04:50:20.347Z,43.20
2018-06-02T04:52:47.832Z,43.00
2018-06-02T04:55:15.373Z,42.90
2018-06-02T04:57:42.851Z,42.90
2018-06-02T05:00:10.471Z,42.80
2018-06-02T05:02:37.957Z,42.60
2018-06-02T05:05:05.435Z,42.50
2018-06-02T05:07:32.946Z,42.60
2018-06-02T05:10:00.427Z,42.60
2018-06-02T05:12:27.915Z,42.50
2018-06-02T05:14:55.655Z,42.30
2018-06-02T05:17:23.136Z,42.00
2018-06-02T05:19:50.690Z,41.90
2018-06-02T05:22:18.240Z,41.90
2018-06-02T05:24:46.515Z,41.80
2018-06-02T05:27:14.126Z,41.90
2018-06-02T05:29:41.636Z,41.80
2018-06-02T05:32:10.431Z,41.80
2018-06-02T05:34:38.613Z,41.60
2018-06-02T05:37:10.686Z,41.50
2018-06-02T05:39:39.623Z,41.40
2018-06-02T05:42:07.373Z,41.90
2018-06-02T05:44:34.990Z,41.20
2018-06-02T05:47:04.354Z,41.20
2018-06-02T05:49:31.828Z,41.10
2018-06-02T05:51:59.532Z,41.10
2018-06-02T05:54:27.058Z,41.10
2018-06-02T05:56:54.572Z,41.10
2018-06-02T05:59:22.983Z,41.10
2018-06-02T06:01:50.474Z,40.90
2018-06-02T06:04:18.762Z,40.60
2018-06-02T06:06:46.475Z,40.50
2018-06-02T06:09:14.688Z,40.40
2018-06-02T06:11:44.534Z,40.30
2018-06-02T06:14:12.244Z,40.10
2018-06-02T06:16:41.525Z,40.00
2018-06-02T06:19:29.227Z,39.90
2018-06-02T06:21:56.712Z,39.90
2018-06-02T06:24:24.468Z,39.50
2018-06-02T06:26:53.261Z,38.80
2018-06-02T06:29:20.737Z,38.70
2018-06-02T06:31:48.222Z,38.60
2018-06-02T06:34:17.440Z,38.50
2018-06-02T06:36:45.648Z,38.40
2018-06-02T06:39:13.406Z,38.50
2018-06-02T06:41:41.959Z,38.30
2018-06-02T06:44:09.460Z,38.30
2018-06-02T06:46:37.056Z,38.30
2018-06-02T06:49:05.298Z,38.40
2018-06-02T06:51:33.571Z,38.40
2018-06-02T06:54:01.059Z,38.20
2018-06-02T06:56:29.336Z,37.90
2018-06-02T06:59:01.891Z,37.90
2018-06-02T07:01:32.763Z,37.90
2018-06-02T07:04:00.988Z,37.50
2018-06-02T07:06:28.897Z,37.20
2018-06-02T07:08:57.651Z,37.30
2018-06-02T07:11:25.164Z,37.30
2018-06-02T07:13:52.659Z,37.60
2018-06-02T07:16:20.131Z,37.40
2018-06-02T07:19:07.278Z,37.20
2018-06-02T07:21:35.563Z,39.10
2018-06-02T07:24:03.060Z,39.00
2018-06-02T07:26:30.527Z,39.40
2018-06-02T07:29:34.059Z,39.30
2018-06-02T07:34:33.561Z,40.00
2018-06-02T07:37:01.078Z,39.60
2018-06-02T07:42:10.380Z,39.30
2018-06-02T07:44:39.620Z,40.20
2018-06-02T07:47:08.308Z,40.60
2018-06-02T07:49:39.897Z,40.20
2018-06-02T07:52:08.283Z,39.50
2018-06-02T07:54:35.811Z,38.70
2018-06-02T07:57:04.147Z,38.30
2018-06-02T07:59:43.767Z,38.10
2018-06-02T08:02:11.574Z,38.30
2018-06-02T08:04:44.125Z,38.40
2018-06-02T08:09:45.516Z,38.80
2018-06-02T08:12:14.581Z,38.50
2018-06-02T08:14:44.471Z,38.20
2018-06-02T08:17:12.179Z,38.40
2018-06-02T08:19:44.096Z,38.40
2018-06-02T08:22:11.904Z,37.90
2018-06-02T08:24:40.520Z,37.70
2018-06-02T08:27:09.193Z,37.40
2018-06-02T08:29:37.215Z,37.30
2018-06-02T08:32:05.816Z,36.80
2018-06-02T08:34:33.299Z,36.40
2018-06-02T08:37:06.054Z,36.10
2018-06-02T08:42:17.525Z,35.00
2018-06-02T08:44:49.948Z,34.50
2018-06-02T08:47:18.545Z,34.20
2018-06-02T08:52:23.642Z,33.80
2018-06-02T08:57:28.178Z,33.40
2018-06-02T09:05:03.342Z,33.10
2018-06-02T09:07:35.765Z,33.10
2018-06-02T09:10:05.258Z,33.80
2018-06-02T09:12:33.155Z,34.50
2018-06-02T09:15:01.033Z,34.80
2018-06-02T09:17:30.447Z,34.90
2018-06-02T09:20:03.835Z,35.00
2018-06-02T09:22:31.627Z,35.20
2018-06-02T09:27:35.884Z,35.30
2018-06-02T09:32:58.563Z,35.40
2018-06-02T09:35:29.470Z,35.40
2018-06-02T09:38:01.235Z,36.00
2018-06-02T09:43:10.309Z,35.60
2018-06-02T09:48:43.682Z,35.40
2018-06-02T09:53:45.451Z,34.90
2018-06-02T09:56:17.103Z,34.40
2018-06-02T09:58:44.910Z,33.50
2018-06-02T10:01:13.573Z,33.40
2018-06-02T10:03:43.386Z,33.70
2018-06-02T10:06:12.332Z,33.60
2018-06-02T10:08:41.358Z,33.60
2018-06-02T10:11:13.810Z,33.30
2018-06-02T10:13:43.786Z,33.70
2018-06-02T10:16:13.415Z,33.50
2018-06-02T10:18:41.154Z,34.10
2018-06-02T10:21:10.499Z,33.90
2018-06-02T10:23:38.274Z,34.10
2018-06-02T10:31:13.474Z,35.50
2018-06-02T10:33:44.527Z,35.50
2018-06-02T10:36:12.322Z,35.20
2018-06-02T10:38:43.147Z,35.30
2018-06-02T10:41:10.659Z,35.10
2018-06-02T10:43:40.694Z,34.60
2018-06-02T10:46:10.840Z,33.70
2018-06-02T10:48:48.471Z,33.30
2018-06-02T10:51:16.084Z,33.10
2018-06-02T10:53:46.060Z,32.90
2018-06-02T10:56:14.277Z,32.80
2018-06-02T11:01:21.173Z,31.00
2018-06-02T11:03:48.927Z,30.90
2018-06-02T11:06:18.359Z,30.40
2018-06-02T11:08:46.143Z,30.00
2018-06-02T11:11:19.340Z,29.90
2018-06-02T11:13:48.035Z,29.30
2018-06-02T11:16:17.861Z,29.70
2018-06-02T11:21:22.854Z,30.10
2018-06-02T11:23:52.459Z,30.30
2018-06-02T11:32:23.990Z,32.50
2018-06-02T11:34:55.547Z,32.30
2018-06-02T11:43:04.512Z,32.90
2018-06-02T11:58:24.281Z,30.60
2018-06-02T12:08:50.380Z,30.00
2018-06-02T12:11:22.026Z,30.20
2018-06-02T12:19:17.528Z,30.60
2018-06-02T12:21:45.254Z,30.70
2018-06-02T12:24:14.910Z,30.30
2018-06-02T12:29:31.050Z,30.00
2018-06-02T12:40:01.291Z,28.80
2018-06-02T12:58:12.708Z,28.20
2018-06-02T13:29:38.741Z,29.30
2018-06-02T14:13:44.580Z,27.00
2018-06-02T14:19:42.238Z,26.70
2018-06-02T14:36:34.680Z,27.40
2018-06-02T15:04:30.506Z,23.30
2018-06-02T15:15:01.174Z,21.60
2018-06-02T15:17:37.041Z,21.30
2018-06-02T15:45:00.399Z,21.50
2018-06-02T15:50:06.241Z,21.40
2018-06-02T15:52:35.698Z,21.40
2018-06-02T15:55:06.499Z,21.80
2018-06-02T15:57:37.353Z,21.70
2018-06-02T16:00:07.633Z,21.60
2018-06-02T16:02:36.586Z,21.50
2018-06-02T16:05:08.695Z,21.70
2018-06-02T16:07:36.755Z,21.80
2018-06-02T16:10:15.082Z,22.10
2018-06-02T16:12:44.637Z,22.30
2018-06-02T16:15:13.621Z,22.00
2018-06-02T16:17:43.032Z,20.90
2018-06-02T16:20:15.835Z,20.80
2018-06-02T16:22:47.826Z,20.50
2018-06-02T16:25:16.255Z,20.10
2018-06-02T16:30:21.299Z,19.40
2018-06-02T16:32:50.948Z,19.00
2018-06-02T16:35:20.092Z,19.20
2018-06-02T16:37:49.723Z,19.30
2018-06-02T16:40:17.246Z,19.60
2018-06-02T16:42:45.502Z,20.50
2018-06-02T16:45:13.578Z,21.10
2018-06-02T16:50:37.750Z,21.70
2018-06-02T16:53:07.107Z,21.40
2018-06-02T16:55:37.527Z,22.20
2018-06-02T16:58:06.697Z,22.20
2018-06-02T17:03:10.876Z,23.70
2018-06-02T17:05:41.631Z,24.20
2018-06-02T17:10:53.463Z,26.10
2018-06-02T17:13:24.326Z,26.40
2018-06-02T17:15:52.701Z,26.90
2018-06-02T17:20:54.833Z,27.90
2018-06-02T17:34:01.229Z,28.70
2018-06-02T17:41:52.240Z,28.40
2018-06-02T17:44:20.860Z,28.40
2018-06-02T17:46:49.424Z,28.30
2018-06-02T17:51:56.425Z,28.90
2018-06-02T17:54:28.711Z,29.30
2018-06-02T18:23:15.466Z,34.00
2018-06-02T18:42:01.377Z,34.20
2018-06-02T18:57:37.685Z,37.30
2018-06-02T19:00:22.404Z,38.30
2018-06-02T19:02:51.840Z,38.20
2018-06-02T19:11:19.835Z,39.50
2018-06-02T19:19:00.245Z,40.90
2018-06-02T19:41:59.741Z,38.50
2018-06-02T19:47:16.059Z,38.40
2018-06-02T20:06:12.211Z,40.60
2018-06-02T20:13:45.148Z,41.80
2018-06-02T20:16:12.679Z,42.00
2018-06-02T20:18:50.807Z,42.20
2018-06-02T20:26:33.665Z,42.80
2018-06-02T20:29:05.896Z,42.80
2018-06-02T20:34:11.983Z,42.90
2018-06-02T20:39:21.135Z,42.90
2018-06-02T20:41:54.544Z,42.90
2018-06-02T20:44:22.103Z,43.10
2018-06-02T20:47:02.148Z,43.50
2018-06-02T20:49:33.840Z,43.90
2018-06-02T20:52:15.610Z,44.30
2018-06-02T20:54:44.723Z,44.40
2018-06-02T20:57:13.704Z,44.40
2018-06-02T20:59:45.892Z,44.60
2018-06-02T21:02:14.862Z,44.70
2018-06-02T21:04:43.293Z,45.00
2018-06-02T21:07:17.656Z,45.40
2018-06-02T21:09:47.439Z,45.70
2018-06-02T21:12:15.819Z,46.30
2018-06-02T21:17:21.541Z,46.50
2018-06-02T21:19:49.436Z,46.70
2018-06-02T21:22:17.348Z,46.90
2018-06-02T21:24:44.920Z,47.20
2018-06-02T21:27:13.946Z,47.40
2018-06-02T21:29:55.626Z,47.60
2018-06-02T21:32:25.359Z,48.30
2018-06-02T21:34:56.900Z,48.00
2018-06-02T21:37:25.638Z,48.30
2018-06-02T21:39:54.601Z,48.40
2018-06-02T21:42:27.348Z,48.70
2018-06-02T21:45:04.218Z,49.00
2018-06-02T21:47:32.882Z,49.10
2018-06-02T21:50:25.623Z,49.30
2018-06-02T21:52:55.035Z,49.40
2018-06-02T21:55:26.428Z,49.50
2018-06-02T21:57:54.439Z,49.60
2018-06-02T22:03:03.518Z,49.90
2018-06-02T22:05:31.643Z,50.00
2018-06-02T22:08:00.343Z,50.10
2018-06-02T22:13:48.425Z,50.30
2018-06-02T22:16:16.793Z,50.30
2018-06-02T22:18:44.813Z,50.40
2018-06-02T22:21:16.591Z,50.60
2018-06-02T22:23:46.417Z,50.70
2018-06-02T22:26:14.979Z,51.20
2018-06-02T22:28:43.552Z,51.10
2018-06-02T22:31:12.204Z,51.20
2018-06-02T22:33:39.686Z,51.20
2018-06-02T22:36:07.176Z,51.40
2018-06-02T22:38:34.735Z,51.30
2018-06-02T22:41:05.367Z,51.40
2018-06-02T22:43:36.081Z,51.50
2018-06-02T22:46:07.016Z,51.50
2018-06-02T22:48:35.425Z,51.50
2018-06-02T22:51:03.421Z,51.50
2018-06-02T22:53:38.686Z,51.50
2018-06-02T22:56:06.361Z,51.50
2018-06-02T22:58:34.142Z,51.60
2018-06-02T23:01:01.892Z,51.80
2018-06-02T23:03:33.207Z,51.90
2018-06-02T23:06:01.605Z,51.80
2018-06-02T23:08:30.827Z,51.80
2018-06-02T23:11:04.274Z,51.90
2018-06-02T23:13:31.764Z,51.80
2018-06-02T23:16:00.293Z,51.90
2018-06-02T23:18:28.834Z,52.00
2018-06-02T23:20:56.371Z,52.10
2018-06-02T23:23:23.888Z,52.10
2018-06-02T23:25:52.160Z,52.30
2018-06-02T23:28:20.403Z,52.50
2018-06-02T23:30:48.309Z,52.40
2018-06-02T23:33:17.306Z,52.40
2018-06-02T23:35:45.656Z,52.50
2018-06-02T23:38:13.158Z,52.60
2018-06-02T23:40:55.356Z,52.70
2018-06-02T23:43:23.335Z,52.80
2018-06-02T23:45:51.348Z,52.90
2018-06-02T23:48:19.117Z,52.90
2018-06-02T23:50:47.479Z,52.80
2018-06-02T23:53:15.338Z,52.90
2018-06-02T23:55:43.720Z,52.90
2018-06-02T23:58:11.688Z,52.90
